Simao, China
Current Conditions -  °F | °C
As of 12:00 AM on Monday 22 Dec 2014 (Local Time) from ZPPP Reporting Station
Haze Haze  
Wind Chill: 25°   Ceiling: Unl
Heat Index: 30°   Visibility: 3mi
Dew Point: 28°   Wind: 4mph
Humidity: 93%   Direction: 210°SSW
Pressure: 30.36"   Gusts: NA
Location:  22.78°N, 100.98°E
Report Text: ZPPP 211600Z 21002MPS 180V260 5000 BR NSC M01/M02 Q1028 NOSIG
Loading
Personal Weather Stations






























Interactive Weather Map New forecast layout! Learn more

10-Day Weather Forecast

Advertisements
Track Severe Weather on mobile